Time;durP1;ratioP1;P1;durP2;ratioP2;P2;SDS_P1;SDS_P2;PMS_P1;PMS_P2;Temp;Humidity;BMP_temperature;BMP_pressure;BME280_temperature;BME280_humidity;BME280_pressure;Samples;Min_cycle;Max_cycle;Signal;HPM_P1;HPM_P2
2021/07/12 00:01:08;;;;;;;11.17;10.17;;;;;;;22.44;58.98;94316.68;831399;71;28628;-77
2021/07/12 00:16:14;;;;;;;12.20;11.00;;;;;;;22.38;59.37;94314.93;827821;71;32668;-80
2021/07/12 00:31:13;;;;;;;11.83;10.77;;;;;;;21.99;60.27;94328.59;828118;71;31649;-79
2021/07/12 00:46:23;;;;;;;10.60;9.70;;;;;;;22.71;61.10;94336.59;835014;71;31784;-84
2021/07/12 01:01:15;;;;;;;11.57;10.60;;;;;;;23.08;58.75;94325.84;834027;71;32233;-78
2021/07/12 01:16:26;;;;;;;11.57;10.57;;;;;;;23.04;57.77;94326.39;828365;71;29261;-77
2021/07/12 01:31:48;;;;;;;12.03;10.90;;;;;;;22.80;56.21;94325.03;834047;71;31750;-79
2021/07/12 01:46:18;;;;;;;12.53;11.30;;;;;;;22.61;56.27;94330.03;828421;71;29320;-78
2021/07/12 02:01:19;;;;;;;11.80;10.60;;;;;;;22.47;56.53;94341.36;801347;74;31983;-83
2021/07/12 02:16:11;;;;;;;11.47;10.47;;;;;;;22.41;56.64;94344.17;829301;71;29298;-83
2021/07/12 02:31:10;;;;;;;11.53;10.17;;;;;;;22.42;57.29;94347.60;834304;71;29253;-79
2021/07/12 02:46:12;;;;;;;11.30;10.27;;;;;;;22.31;57.93;94352.27;828338;71;29832;-80
2021/07/12 03:16:16;;;;;;;12.40;11.25;;;;;;;21.58;59.88;94341.08;829322;71;31713;-77
2021/07/12 03:31:17;;;;;;;13.00;11.80;;;;;;;21.69;60.27;94347.31;834073;71;31814;-78
2021/07/12 03:46:09;;;;;;;11.83;10.75;;;;;;;22.37;59.04;94346.80;834466;71;28686;-79
2021/07/12 04:01:08;;;;;;;13.07;11.90;;;;;;;23.37;57.44;94351.47;828588;71;28748;-76
2021/07/12 04:16:16;;;;;;;12.90;11.77;;;;;;;24.15;56.06;94356.49;827724;71;31803;-77
2021/07/12 04:31:08;;;;;;;13.10;11.90;;;;;;;25.25;52.80;94370.52;829648;71;28752;-80
2021/07/12 04:46:32;;;;;;;14.73;12.73;;;;;;;26.38;51.88;94373.30;833962;71;31800;-82
2021/07/12 05:31:31;;;;;;;15.50;14.07;;;;;;;27.88;48.59;94369.33;831836;71;31812;-81
2021/07/12 05:46:15;;;;;;;17.13;15.63;;;;;;;26.86;48.68;94365.15;825225;70;32239;-79
2021/07/12 06:01:16;;;;;;;17.47;14.40;;;;;;;25.91;51.53;94380.02;827304;71;32177;-77
2021/07/12 06:16:07;;;;;;;16.67;14.83;;;;;;;;;;829219;71;28757;-78
2021/07/12 06:31:16;;;;;;;21.70;15.90;;;;;;;26.61;49.62;94378.78;833716;71;31858;-80
2021/07/12 06:46:08;;;;;;;16.97;15.27;;;;;;;;;;831992;71;28720;-79
2021/07/12 07:01:08;;;;;;;18.97;15.67;;;;;;;;;;828066;71;29280;-75
2021/07/12 07:16:12;;;;;;;14.87;13.47;;;;;;;28.62;45.78;94378.27;824256;71;31308;-79
2021/07/12 07:31:14;;;;;;;16.30;14.80;;;;;;;28.89;44.62;94374.23;827500;71;32462;-79
2021/07/12 07:46:09;;;;;;;14.03;12.77;;;;;;;29.00;43.76;94367.31;828220;71;28240;-76
2021/07/12 08:01:08;;;;;;;13.27;12.00;;;;;;;29.55;41.19;94367.39;829670;71;27780;-79
2021/07/12 08:16:18;;;;;;;12.60;11.40;;;;;;;29.32;41.58;94363.34;831610;70;33380;-80
2021/07/12 08:31:16;;;;;;;12.40;11.30;;;;;;;29.47;38.72;94365.23;833909;71;30932;-79
2021/07/12 08:46:14;;;;;;;10.87;9.87;;;;;;;29.75;36.91;94357.22;833838;71;29064;-78
2021/07/12 09:16:31;;;;;;;11.60;10.63;;;;;;;30.48;35.94;94345.92;831168;71;31796;-82
2021/07/12 09:31:33;;;;;;;12.33;11.23;;;;;;;30.48;34.88;94324.26;829686;71;29514;-83
2021/07/12 09:46:30;;;;;;;13.03;11.73;;;;;;;30.75;35.06;94344.34;821474;71;33546;-85
2021/07/12 10:01:24;;;;;;;12.07;10.87;;;;;;;30.87;34.53;94346.23;834076;71;31833;-84
2021/07/12 10:16:10;;;;;;;29.60;23.43;;;;;;;30.86;32.98;94347.41;828962;71;29122;-82
2021/07/12 10:31:21;;;;;;;93.10;73.00;;;;;;;31.20;32.37;94335.41;827439;71;32709;-81
2021/07/12 10:46:08;;;;;;;16.93;15.13;;;;;;;32.08;31.06;94319.38;828387;71;29637;-78
2021/07/12 11:01:19;;;;;;;12.40;11.20;;;;;;;32.39;30.08;94315.41;827459;71;31795;-78
2021/07/12 11:16:17;;;;;;;11.80;10.90;;;;;;;32.02;30.09;94326.53;833198;71;29656;-79
2021/07/12 11:46:52;;;;;;;11.70;10.70;;;;;;;32.09;30.78;94303.84;807945;72;31908;-81
2021/07/12 12:01:21;;;;;;;9.63;8.70;;;;;;;30.90;31.51;94296.05;835011;71;31749;-81
2021/07/12 12:31:27;;;;;;;8.77;8.07;;;;;;;31.45;29.15;94275.91;833869;71;32869;-80
2021/07/12 12:46:08;;;;;;;9.00;7.90;;;;;;;31.58;28.39;94255.59;828432;71;28794;-79
2021/07/12 13:31:14;;;;;;;9.63;8.83;;;;;;;31.73;28.57;94235.03;827897;71;32695;-79
2021/07/12 13:46:13;;;;;;;8.30;7.70;;;;;;;31.67;28.40;94232.69;827845;71;32662;-82
2021/07/12 14:01:15;;;;;;;8.93;8.03;;;;;;;31.26;28.66;94238.80;834079;71;32794;-76
2021/07/12 14:16:34;;;;;;;9.07;8.33;;;;;;;31.10;29.27;94216.55;834249;71;31757;-80
2021/07/12 14:31:12;;;;;;;8.17;7.50;;;;;;;31.41;28.86;94226.97;830198;71;31950;-81
2021/07/12 15:16:39;;;;;;;7.53;7.03;;;;;;;30.78;29.30;94215.41;834096;71;32692;-82
2021/07/12 15:31:28;;;;;;;;;;;;;;;;;;;;;
2021/07/12 15:46:44;;;;;;;;;;;;;;;;;;;;;
2021/07/12 16:01:15;;;;;;;7.87;7.27;;;;;;;30.44;30.19;94213.90;833944;71;32697;-76
2021/07/12 16:16:14;;;;;;;8.17;7.30;;;;;;;29.85;30.88;94213.46;827763;71;32762;-79
2021/07/12 16:31:13;;;;;;;7.37;6.77;;;;;;;29.50;30.78;94225.13;828734;71;32718;-78
2021/07/12 16:46:18;;;;;;;7.87;7.17;;;;;;;29.17;31.13;94241.20;837697;70;32774;-78
2021/07/12 17:01:10;;;;;;;8.13;7.43;;;;;;;28.88;32.14;94239.56;820789;71;30768;-81
2021/07/12 17:16:21;;;;;;;8.80;8.00;;;;;;;28.49;32.92;94245.75;827260;71;32765;-77
2021/07/12 17:31:09;;;;;;;8.60;7.70;;;;;;;28.22;33.15;94244.98;828304;71;29768;-78
2021/07/12 17:46:09;;;;;;;9.33;8.43;;;;;;;27.94;34.95;94248.24;820428;71;29816;-80
2021/07/12 18:01:12;;;;;;;10.20;9.30;;;;;;;27.67;37.04;94252.22;829908;71;29977;-77
2021/07/12 18:16:16;;;;;;;9.10;8.30;;;;;;;27.38;37.98;94243.88;827719;71;32675;-77
2021/07/12 18:31:15;;;;;;;9.63;8.83;;;;;;;27.06;38.91;94258.99;827891;71;32809;-77
2021/07/12 18:46:15;;;;;;;10.70;9.90;;;;;;;26.55;40.39;94288.23;828056;71;32803;-75
2021/07/12 19:01:09;;;;;;;9.60;8.80;;;;;;;26.16;41.13;94301.94;828326;71;29710;-76
2021/07/12 19:16:14;;;;;;;10.70;9.80;;;;;;;22.38;42.36;93816.86;822390;71;33107;-77
2021/07/12 19:31:09;;;;;;;11.50;10.33;;;;;;;25.62;42.38;94333.61;826346;71;30428;-78
2021/07/12 19:46:21;;;;;;;10.87;9.87;;;;;;;25.36;43.59;94339.59;820998;71;33336;-77
2021/07/12 20:01:11;;;;;;;11.53;10.33;;;;;;;25.16;44.50;94331.14;819259;71;30399;-75
2021/07/12 20:16:15;;;;;;;12.10;11.00;;;;;;;25.06;45.03;94333.27;820738;71;32849;-78
2021/07/12 20:31:09;;;;;;;12.07;10.97;;;;;;;24.91;46.16;94331.92;828141;71;30287;-76
2021/07/12 20:46:13;;;;;;;11.37;10.40;;;;;;;24.86;47.44;94343.06;826316;71;32613;-78
2021/07/12 21:16:08;;;;;;;12.40;11.23;;;;;;;25.76;45.86;94380.02;834194;71;30213;-77
2021/07/12 21:31:11;;;;;;;12.67;11.57;;;;;;;25.29;45.89;94386.63;834170;71;30360;-76
2021/07/12 21:46:13;;;;;;;13.23;11.93;;;;;;;24.93;46.75;94377.95;828998;71;32608;-76
2021/07/12 22:01:14;;;;;;;12.70;11.50;;;;;;;24.68;47.81;94374.48;834033;71;32724;-76
2021/07/12 22:16:16;;;;;;;12.70;11.50;;;;;;;24.47;48.43;94375.92;827611;71;32791;-78
2021/07/12 22:31:14;;;;;;;12.70;11.60;;;;;;;24.27;48.66;94386.23;827659;71;32707;-78
2021/07/12 22:46:09;;;;;;;12.80;11.60;;;;;;;24.06;49.58;94383.45;829833;71;29778;-80
2021/07/12 23:01:14;;;;;;;13.50;12.30;;;;;;;23.90;50.14;94375.72;827650;71;32814;-75
2021/07/12 23:16:16;;;;;;;13.87;12.57;;;;;;;23.71;50.59;94365.45;834093;71;33185;-75
2021/07/12 23:31:14;;;;;;;13.20;12.00;;;;;;;23.55;50.72;94376.45;827618;71;32737;-79
2021/07/12 23:46:15;;;;;;;13.50;12.07;;;;;;;23.41;51.44;94365.66;827630;71;33272;-76
